sensor_id;sensor_type;location;lat;lon;timestamp;pressure;altitude;pressure_sealevel;temperature
24160;BMP280;62385;41.594;23.808;2022-07-29T00:02:13;70369.03;;;-148.57
24160;BMP280;62385;41.594;23.808;2022-07-29T00:04:38;70369.03;;;-148.57
24160;BMP280;62385;41.594;23.808;2022-07-29T00:07:04;70369.03;;;-148.57
24160;BMP280;62385;41.594;23.808;2022-07-29T00:09:31;70369.03;;;-148.57
24160;BMP280;62385;41.594;23.808;2022-07-29T00:12:00;70369.03;;;-148.57
24160;BMP280;62385;41.594;23.808;2022-07-29T00:14:26;70369.03;;;-148.57
24160;BMP280;62385;41.594;23.808;2022-07-29T00:16:52;70369.03;;;-148.57
24160;BMP280;62385;41.594;23.808;2022-07-29T00:19:17;70369.03;;;-148.57
24160;BMP280;62385;41.594;23.808;2022-07-29T00:21:43;70369.03;;;-148.57
24160;BMP280;62385;41.594;23.808;2022-07-29T00:24:08;70369.03;;;-148.57
24160;BMP280;62385;41.594;23.808;2022-07-29T00:26:34;70369.03;;;-148.57
24160;BMP280;62385;41.594;23.808;2022-07-29T00:29:01;70369.03;;;-148.57
24160;BMP280;62385;41.594;23.808;2022-07-29T00:31:27;70369.03;;;-148.57
24160;BMP280;62385;41.594;23.808;2022-07-29T00:33:53;70369.03;;;-148.57
24160;BMP280;62385;41.594;23.808;2022-07-29T00:36:19;70369.03;;;-148.57
24160;BMP280;62385;41.594;23.808;2022-07-29T00:38:47;70369.03;;;-148.57
24160;BMP280;62385;41.594;23.808;2022-07-29T00:41:15;70369.03;;;-148.57
24160;BMP280;62385;41.594;23.808;2022-07-29T00:43:41;70369.03;;;-148.57
24160;BMP280;62385;41.594;23.808;2022-07-29T00:46:07;70369.03;;;-148.57
24160;BMP280;62385;41.594;23.808;2022-07-29T00:48:32;70369.03;;;-148.57
24160;BMP280;62385;41.594;23.808;2022-07-29T00:50:59;70369.03;;;-148.57
24160;BMP280;62385;41.594;23.808;2022-07-29T00:53:26;70369.03;;;-148.57
24160;BMP280;62385;41.594;23.808;2022-07-29T00:55:54;70369.03;;;-148.57
24160;BMP280;62385;41.594;23.808;2022-07-29T00:58:20;70369.03;;;-148.57
24160;BMP280;62385;41.594;23.808;2022-07-29T01:01:05;70369.03;;;-148.57
24160;BMP280;62385;41.594;23.808;2022-07-29T01:03:30;70369.03;;;-148.57
24160;BMP280;62385;41.594;23.808;2022-07-29T01:05:56;70369.03;;;-148.57
24160;BMP280;62385;41.594;23.808;2022-07-29T01:08:23;70369.03;;;-148.57
24160;BMP280;62385;41.594;23.808;2022-07-29T01:10:50;70369.03;;;-148.57
24160;BMP280;62385;41.594;23.808;2022-07-29T01:13:17;70369.03;;;-148.57
24160;BMP280;62385;41.594;23.808;2022-07-29T01:15:47;70369.03;;;-148.57
24160;BMP280;62385;41.594;23.808;2022-07-29T01:18:32;70369.03;;;-148.57
24160;BMP280;62385;41.594;23.808;2022-07-29T01:32:17;70369.03;;;-148.57
24160;BMP280;62385;41.594;23.808;2022-07-29T01:34:54;70369.03;;;-148.57
24160;BMP280;62385;41.594;23.808;2022-07-29T01:37:28;70369.03;;;-148.57
24160;BMP280;62385;41.594;23.808;2022-07-29T01:39:58;70369.03;;;-148.57
24160;BMP280;62385;41.594;23.808;2022-07-29T01:42:45;70369.03;;;-148.57
24160;BMP280;62385;41.594;23.808;2022-07-29T01:45:43;70369.03;;;-148.57
24160;BMP280;62385;41.594;23.808;2022-07-29T01:48:15;70369.03;;;-148.57
24160;BMP280;62385;41.594;23.808;2022-07-29T01:50:55;70369.03;;;-148.57
24160;BMP280;62385;41.594;23.808;2022-07-29T01:53:34;70369.03;;;-148.57
24160;BMP280;62385;41.594;23.808;2022-07-29T01:56:02;70369.03;;;-148.57
24160;BMP280;62385;41.594;23.808;2022-07-29T01:58:29;70369.03;;;-148.57
24160;BMP280;62385;41.594;23.808;2022-07-29T02:00:59;70369.03;;;-148.57
24160;BMP280;62385;41.594;23.808;2022-07-29T02:03:26;70369.03;;;-148.57
24160;BMP280;62385;41.594;23.808;2022-07-29T02:05:55;70369.03;;;-148.57
24160;BMP280;62385;41.594;23.808;2022-07-29T02:08:23;70369.03;;;-148.57
24160;BMP280;62385;41.594;23.808;2022-07-29T02:10:51;70369.03;;;-148.57
24160;BMP280;62385;41.594;23.808;2022-07-29T02:13:17;70369.03;;;-148.57
24160;BMP280;62385;41.594;23.808;2022-07-29T02:15:44;70369.03;;;-148.57
24160;BMP280;62385;41.594;23.808;2022-07-29T02:18:19;70369.03;;;-148.57
24160;BMP280;62385;41.594;23.808;2022-07-29T02:20:52;70369.03;;;-148.57
24160;BMP280;62385;41.594;23.808;2022-07-29T02:23:21;70369.03;;;-148.57
24160;BMP280;62385;41.594;23.808;2022-07-29T02:25:56;70369.03;;;-148.57
24160;BMP280;62385;41.594;23.808;2022-07-29T02:28:24;70369.03;;;-148.57
24160;BMP280;62385;41.594;23.808;2022-07-29T02:30:52;70369.03;;;-148.57
24160;BMP280;62385;41.594;23.808;2022-07-29T02:33:19;70369.03;;;-148.57
24160;BMP280;62385;41.594;23.808;2022-07-29T02:35:48;70369.03;;;-148.57
24160;BMP280;62385;41.594;23.808;2022-07-29T02:38:15;70369.03;;;-148.57
24160;BMP280;62385;41.594;23.808;2022-07-29T02:41:08;70369.03;;;-148.57
24160;BMP280;62385;41.594;23.808;2022-07-29T02:43:35;70369.03;;;-148.57
24160;BMP280;62385;41.594;23.808;2022-07-29T02:46:04;70369.03;;;-148.57
24160;BMP280;62385;41.594;23.808;2022-07-29T02:48:48;70369.03;;;-148.57
24160;BMP280;62385;41.594;23.808;2022-07-29T02:51:28;70369.03;;;-148.57
24160;BMP280;62385;41.594;23.808;2022-07-29T02:53:57;70369.03;;;-148.57
24160;BMP280;62385;41.594;23.808;2022-07-29T02:56:28;70369.03;;;-148.57
24160;BMP280;62385;41.594;23.808;2022-07-29T02:59:04;70369.03;;;-148.57
24160;BMP280;62385;41.594;23.808;2022-07-29T03:01:32;70369.03;;;-148.57
24160;BMP280;62385;41.594;23.808;2022-07-29T03:04:01;70369.03;;;-148.57
24160;BMP280;62385;41.594;23.808;2022-07-29T03:06:30;70369.03;;;-148.57
24160;BMP280;62385;41.594;23.808;2022-07-29T03:08:58;70369.03;;;-148.57
24160;BMP280;62385;41.594;23.808;2022-07-29T03:11:25;70369.03;;;-148.57
24160;BMP280;62385;41.594;23.808;2022-07-29T03:13:51;70369.03;;;-148.57
24160;BMP280;62385;41.594;23.808;2022-07-29T03:16:19;70369.03;;;-148.57
24160;BMP280;62385;41.594;23.808;2022-07-29T03:18:45;70369.03;;;-148.57
24160;BMP280;62385;41.594;23.808;2022-07-29T03:21:11;70369.03;;;-148.57
24160;BMP280;62385;41.594;23.808;2022-07-29T03:23:37;70369.03;;;-148.57
24160;BMP280;62385;41.594;23.808;2022-07-29T03:26:08;70369.03;;;-148.57
24160;BMP280;62385;41.594;23.808;2022-07-29T03:28:34;70369.03;;;-148.57
24160;BMP280;62385;41.594;23.808;2022-07-29T03:31:00;70369.03;;;-148.57
24160;BMP280;62385;41.594;23.808;2022-07-29T03:33:26;70369.03;;;-148.57
24160;BMP280;62385;41.594;23.808;2022-07-29T03:35:51;70369.03;;;-148.57
24160;BMP280;62385;41.594;23.808;2022-07-29T03:38:17;70369.03;;;-148.57
24160;BMP280;62385;41.594;23.808;2022-07-29T03:40:51;70369.03;;;-148.57
24160;BMP280;62385;41.594;23.808;2022-07-29T03:43:19;70369.03;;;-148.57
24160;BMP280;62385;41.594;23.808;2022-07-29T03:45:47;70369.03;;;-148.57
24160;BMP280;62385;41.594;23.808;2022-07-29T03:48:17;70369.03;;;-148.57
24160;BMP280;62385;41.594;23.808;2022-07-29T03:50:43;70369.03;;;-148.57
24160;BMP280;62385;41.594;23.808;2022-07-29T03:53:09;70369.03;;;-148.57
24160;BMP280;62385;41.594;23.808;2022-07-29T03:55:46;70369.03;;;-148.57
24160;BMP280;62385;41.594;23.808;2022-07-29T03:58:14;70369.03;;;-148.57
24160;BMP280;62385;41.594;23.808;2022-07-29T04:00:41;70369.03;;;-148.57
24160;BMP280;62385;41.594;23.808;2022-07-29T04:03:08;70369.03;;;-148.57
24160;BMP280;62385;41.594;23.808;2022-07-29T04:05:34;70369.03;;;-148.57
24160;BMP280;62385;41.594;23.808;2022-07-29T04:07:59;70369.03;;;-148.57
24160;BMP280;62385;41.594;23.808;2022-07-29T04:10:25;70369.03;;;-148.57
24160;BMP280;62385;41.594;23.808;2022-07-29T04:12:51;70369.03;;;-148.57
24160;BMP280;62385;41.594;23.808;2022-07-29T04:15:16;70369.03;;;-148.57
24160;BMP280;62385;41.594;23.808;2022-07-29T04:17:42;70369.03;;;-148.57
24160;BMP280;62385;41.594;23.808;2022-07-29T04:20:08;70369.03;;;-148.57
24160;BMP280;62385;41.594;23.808;2022-07-29T04:22:34;70369.03;;;-148.57
24160;BMP280;62385;41.594;23.808;2022-07-29T04:24:59;70369.03;;;-148.57
24160;BMP280;62385;41.594;23.808;2022-07-29T04:27:26;70369.03;;;-148.57
24160;BMP280;62385;41.594;23.808;2022-07-29T04:29:52;70369.03;;;-148.57
24160;BMP280;62385;41.594;23.808;2022-07-29T04:32:19;70369.03;;;-148.57
24160;BMP280;62385;41.594;23.808;2022-07-29T04:34:44;70369.03;;;-148.57
24160;BMP280;62385;41.594;23.808;2022-07-29T04:37:12;70369.03;;;-148.57
24160;BMP280;62385;41.594;23.808;2022-07-29T04:39:37;70369.03;;;-148.57
24160;BMP280;62385;41.594;23.808;2022-07-29T04:42:04;70369.03;;;-148.57
24160;BMP280;62385;41.594;23.808;2022-07-29T04:44:30;70369.03;;;-148.57
24160;BMP280;62385;41.594;23.808;2022-07-29T04:46:56;70369.03;;;-148.57
24160;BMP280;62385;41.594;23.808;2022-07-29T04:49:22;70369.03;;;-148.57
24160;BMP280;62385;41.594;23.808;2022-07-29T04:51:48;70369.03;;;-148.57
24160;BMP280;62385;41.594;23.808;2022-07-29T04:54:14;70369.03;;;-148.57
24160;BMP280;62385;41.594;23.808;2022-07-29T04:56:39;70369.03;;;-148.57
24160;BMP280;62385;41.594;23.808;2022-07-29T04:59:05;70369.03;;;-148.57
24160;BMP280;62385;41.594;23.808;2022-07-29T05:01:30;70369.03;;;-148.57
24160;BMP280;62385;41.594;23.808;2022-07-29T05:03:56;70369.03;;;-148.57
24160;BMP280;62385;41.594;23.808;2022-07-29T05:06:21;70369.03;;;-148.57
24160;BMP280;62385;41.594;23.808;2022-07-29T05:08:47;70369.03;;;-148.57
24160;BMP280;62385;41.594;23.808;2022-07-29T05:11:13;70369.03;;;-148.57
24160;BMP280;62385;41.594;23.808;2022-07-29T05:13:39;70369.03;;;-148.57
24160;BMP280;62385;41.594;23.808;2022-07-29T05:16:04;70369.03;;;-148.57
24160;BMP280;62385;41.594;23.808;2022-07-29T05:18:30;70369.03;;;-148.57
24160;BMP280;62385;41.594;23.808;2022-07-29T05:20:55;70369.03;;;-148.57
24160;BMP280;62385;41.594;23.808;2022-07-29T05:23:21;70369.03;;;-148.57
24160;BMP280;62385;41.594;23.808;2022-07-29T05:25:47;70369.03;;;-148.57
24160;BMP280;62385;41.594;23.808;2022-07-29T05:28:12;70369.03;;;-148.57
24160;BMP280;62385;41.594;23.808;2022-07-29T05:30:39;70369.03;;;-148.57
24160;BMP280;62385;41.594;23.808;2022-07-29T05:33:05;70369.03;;;-148.57
24160;BMP280;62385;41.594;23.808;2022-07-29T05:35:30;70369.03;;;-148.57
24160;BMP280;62385;41.594;23.808;2022-07-29T05:37:56;70369.03;;;-148.57
24160;BMP280;62385;41.594;23.808;2022-07-29T05:40:22;70369.03;;;-148.57
24160;BMP280;62385;41.594;23.808;2022-07-29T05:42:47;70369.03;;;-148.57
24160;BMP280;62385;41.594;23.808;2022-07-29T05:45:31;70369.03;;;-148.57
24160;BMP280;62385;41.594;23.808;2022-07-29T05:47:58;70369.03;;;-148.57
24160;BMP280;62385;41.594;23.808;2022-07-29T05:50:23;70369.03;;;-148.57
24160;BMP280;62385;41.594;23.808;2022-07-29T05:52:50;70369.03;;;-148.57
24160;BMP280;62385;41.594;23.808;2022-07-29T05:55:15;70369.03;;;-148.57
24160;BMP280;62385;41.594;23.808;2022-07-29T05:57:41;70369.03;;;-148.57
24160;BMP280;62385;41.594;23.808;2022-07-29T06:00:09;70369.03;;;-148.57
24160;BMP280;62385;41.594;23.808;2022-07-29T06:02:53;70369.03;;;-148.57
24160;BMP280;62385;41.594;23.808;2022-07-29T06:05:20;70369.03;;;-148.57
24160;BMP280;62385;41.594;23.808;2022-07-29T06:07:45;70369.03;;;-148.57
24160;BMP280;62385;41.594;23.808;2022-07-29T06:10:11;70369.03;;;-148.57
24160;BMP280;62385;41.594;23.808;2022-07-29T06:12:37;70369.03;;;-148.57
24160;BMP280;62385;41.594;23.808;2022-07-29T06:15:03;70369.03;;;-148.57
24160;BMP280;62385;41.594;23.808;2022-07-29T06:17:28;70369.03;;;-148.57
24160;BMP280;62385;41.594;23.808;2022-07-29T06:19:54;70369.03;;;-148.57
24160;BMP280;62385;41.594;23.808;2022-07-29T06:22:20;70369.03;;;-148.57
24160;BMP280;62385;41.594;23.808;2022-07-29T06:24:45;70369.03;;;-148.57
24160;BMP280;62385;41.594;23.808;2022-07-29T06:27:11;70369.03;;;-148.57
24160;BMP280;62385;41.594;23.808;2022-07-29T06:29:37;70369.03;;;-148.57
24160;BMP280;62385;41.594;23.808;2022-07-29T06:32:03;70369.03;;;-148.57
24160;BMP280;62385;41.594;23.808;2022-07-29T06:34:29;70369.03;;;-148.57
24160;BMP280;62385;41.594;23.808;2022-07-29T06:36:54;70369.03;;;-148.57
24160;BMP280;62385;41.594;23.808;2022-07-29T06:39:21;70369.03;;;-148.57
24160;BMP280;62385;41.594;23.808;2022-07-29T06:41:50;70369.03;;;-148.57
24160;BMP280;62385;41.594;23.808;2022-07-29T06:44:16;70369.03;;;-148.57
24160;BMP280;62385;41.594;23.808;2022-07-29T06:46:42;70369.03;;;-148.57
24160;BMP280;62385;41.594;23.808;2022-07-29T06:49:09;70369.03;;;-148.57
24160;BMP280;62385;41.594;23.808;2022-07-29T06:51:35;70369.03;;;-148.57
24160;BMP280;62385;41.594;23.808;2022-07-29T06:54:02;70369.03;;;-148.57
24160;BMP280;62385;41.594;23.808;2022-07-29T06:56:31;70369.03;;;-148.57
24160;BMP280;62385;41.594;23.808;2022-07-29T06:59:16;70369.03;;;-148.57
24160;BMP280;62385;41.594;23.808;2022-07-29T07:01:43;70369.03;;;-148.57
24160;BMP280;62385;41.594;23.808;2022-07-29T07:04:09;70369.03;;;-148.57
24160;BMP280;62385;41.594;23.808;2022-07-29T07:06:36;70369.03;;;-148.57
24160;BMP280;62385;41.594;23.808;2022-07-29T07:09:02;70369.03;;;-148.57
24160;BMP280;62385;41.594;23.808;2022-07-29T07:11:28;70369.03;;;-148.57
24160;BMP280;62385;41.594;23.808;2022-07-29T07:13:54;70369.03;;;-148.57
24160;BMP280;62385;41.594;23.808;2022-07-29T07:16:19;70369.03;;;-148.57
24160;BMP280;62385;41.594;23.808;2022-07-29T07:18:45;70369.03;;;-148.57
24160;BMP280;62385;41.594;23.808;2022-07-29T07:21:11;70369.03;;;-148.57
24160;BMP280;62385;41.594;23.808;2022-07-29T07:23:37;70369.03;;;-148.57
24160;BMP280;62385;41.594;23.808;2022-07-29T07:26:03;70369.03;;;-148.57
24160;BMP280;62385;41.594;23.808;2022-07-29T07:28:28;70369.03;;;-148.57
24160;BMP280;62385;41.594;23.808;2022-07-29T07:30:55;70369.03;;;-148.57
24160;BMP280;62385;41.594;23.808;2022-07-29T07:33:20;70369.03;;;-148.57
24160;BMP280;62385;41.594;23.808;2022-07-29T07:35:46;70369.03;;;-148.57
24160;BMP280;62385;41.594;23.808;2022-07-29T07:38:12;70369.03;;;-148.57
24160;BMP280;62385;41.594;23.808;2022-07-29T07:40:38;70369.03;;;-148.57
24160;BMP280;62385;41.594;23.808;2022-07-29T07:43:03;70369.03;;;-148.57
24160;BMP280;62385;41.594;23.808;2022-07-29T07:45:30;70369.03;;;-148.57
24160;BMP280;62385;41.594;23.808;2022-07-29T07:47:58;70369.03;;;-148.57
24160;BMP280;62385;41.594;23.808;2022-07-29T07:50:24;70369.03;;;-148.57
24160;BMP280;62385;41.594;23.808;2022-07-29T07:52:54;70369.03;;;-148.57
24160;BMP280;62385;41.594;23.808;2022-07-29T07:55:23;70369.03;;;-148.57
24160;BMP280;62385;41.594;23.808;2022-07-29T07:57:48;70369.03;;;-148.57
24160;BMP280;62385;41.594;23.808;2022-07-29T08:00:16;70369.03;;;-148.57
24160;BMP280;62385;41.594;23.808;2022-07-29T08:02:42;70369.03;;;-148.57
24160;BMP280;62385;41.594;23.808;2022-07-29T08:05:09;70369.03;;;-148.57
24160;BMP280;62385;41.594;23.808;2022-07-29T08:07:34;70369.03;;;-148.57
24160;BMP280;62385;41.594;23.808;2022-07-29T08:10:01;70369.03;;;-148.57
24160;BMP280;62385;41.594;23.808;2022-07-29T08:12:26;70369.03;;;-148.57
24160;BMP280;62385;41.594;23.808;2022-07-29T08:14:52;70369.03;;;-148.57
24160;BMP280;62385;41.594;23.808;2022-07-29T08:17:17;70369.03;;;-148.57
24160;BMP280;62385;41.594;23.808;2022-07-29T08:19:44;70369.03;;;-148.57
24160;BMP280;62385;41.594;23.808;2022-07-29T08:22:09;70369.03;;;-148.57
24160;BMP280;62385;41.594;23.808;2022-07-29T08:24:36;70369.03;;;-148.57
24160;BMP280;62385;41.594;23.808;2022-07-29T08:27:33;70369.03;;;-148.57
24160;BMP280;62385;41.594;23.808;2022-07-29T08:29:59;70369.03;;;-148.57
24160;BMP280;62385;41.594;23.808;2022-07-29T08:32:24;70369.03;;;-148.57
24160;BMP280;62385;41.594;23.808;2022-07-29T08:34:50;70369.03;;;-148.57
24160;BMP280;62385;41.594;23.808;2022-07-29T08:37:16;70369.03;;;-148.57
24160;BMP280;62385;41.594;23.808;2022-07-29T08:39:42;70369.03;;;-148.57
24160;BMP280;62385;41.594;23.808;2022-07-29T08:42:07;70369.03;;;-148.57
24160;BMP280;62385;41.594;23.808;2022-07-29T08:44:35;70369.03;;;-148.57
24160;BMP280;62385;41.594;23.808;2022-07-29T08:47:01;70369.03;;;-148.57
24160;BMP280;62385;41.594;23.808;2022-07-29T08:49:26;70369.03;;;-148.57
24160;BMP280;62385;41.594;23.808;2022-07-29T08:51:53;70369.03;;;-148.57
24160;BMP280;62385;41.594;23.808;2022-07-29T08:54:19;70369.03;;;-148.57
24160;BMP280;62385;41.594;23.808;2022-07-29T08:56:51;70369.03;;;-148.57
24160;BMP280;62385;41.594;23.808;2022-07-29T08:59:22;70369.03;;;-148.57
24160;BMP280;62385;41.594;23.808;2022-07-29T09:01:52;70369.03;;;-148.57
24160;BMP280;62385;41.594;23.808;2022-07-29T09:04:19;70369.03;;;-148.57
24160;BMP280;62385;41.594;23.808;2022-07-29T09:06:48;70369.03;;;-148.57
24160;BMP280;62385;41.594;23.808;2022-07-29T09:09:14;70369.03;;;-148.57
24160;BMP280;62385;41.594;23.808;2022-07-29T09:11:41;70369.03;;;-148.57
24160;BMP280;62385;41.594;23.808;2022-07-29T09:14:08;70369.03;;;-148.57
24160;BMP280;62385;41.594;23.808;2022-07-29T09:19:24;70369.03;;;-148.57
24160;BMP280;62385;41.594;23.808;2022-07-29T09:21:50;70369.03;;;-148.57
24160;BMP280;62385;41.594;23.808;2022-07-29T09:27:01;70369.03;;;-148.57
24160;BMP280;62385;41.594;23.808;2022-07-29T09:29:27;70369.03;;;-148.57
24160;BMP280;62385;41.594;23.808;2022-07-29T09:31:54;70369.03;;;-148.57
24160;BMP280;62385;41.594;23.808;2022-07-29T09:34:26;70369.03;;;-148.57
24160;BMP280;62385;41.594;23.808;2022-07-29T09:36:54;70369.03;;;-148.57
24160;BMP280;62385;41.594;23.808;2022-07-29T09:41:58;70369.03;;;-148.57
24160;BMP280;62385;41.594;23.808;2022-07-29T09:44:25;70369.03;;;-148.57
24160;BMP280;62385;41.594;23.808;2022-07-29T09:46:56;70369.03;;;-148.57
24160;BMP280;62385;41.594;23.808;2022-07-29T09:49:24;70369.03;;;-148.57
24160;BMP280;62385;41.594;23.808;2022-07-29T09:52:19;70369.03;;;-148.57
24160;BMP280;62385;41.594;23.808;2022-07-29T09:55:08;70369.03;;;-148.57
24160;BMP280;62385;41.594;23.808;2022-07-29T09:57:34;70369.03;;;-148.57
24160;BMP280;62385;41.594;23.808;2022-07-29T10:00:11;70369.03;;;-148.57
24160;BMP280;62385;41.594;23.808;2022-07-29T10:02:41;70369.03;;;-148.57
24160;BMP280;62385;41.594;23.808;2022-07-29T10:05:23;70369.03;;;-148.57
24160;BMP280;62385;41.594;23.808;2022-07-29T10:07:53;70369.03;;;-148.57
24160;BMP280;62385;41.594;23.808;2022-07-29T10:10:25;70369.03;;;-148.57
24160;BMP280;62385;41.594;23.808;2022-07-29T10:13:01;70369.03;;;-148.57
24160;BMP280;62385;41.594;23.808;2022-07-29T10:15:28;70369.03;;;-148.57
24160;BMP280;62385;41.594;23.808;2022-07-29T10:17:55;70369.03;;;-148.57
24160;BMP280;62385;41.594;23.808;2022-07-29T10:20:22;70369.03;;;-148.57
24160;BMP280;62385;41.594;23.808;2022-07-29T10:22:49;70369.03;;;-148.57
24160;BMP280;62385;41.594;23.808;2022-07-29T10:25:16;70369.03;;;-148.57
24160;BMP280;62385;41.594;23.808;2022-07-29T10:27:46;70369.03;;;-148.57
24160;BMP280;62385;41.594;23.808;2022-07-29T10:30:31;70369.03;;;-148.57
24160;BMP280;62385;41.594;23.808;2022-07-29T10:44:00;70369.03;;;-148.57
24160;BMP280;62385;41.594;23.808;2022-07-29T10:46:46;70369.03;;;-148.57
24160;BMP280;62385;41.594;23.808;2022-07-29T10:49:19;70369.03;;;-148.57
24160;BMP280;62385;41.594;23.808;2022-07-29T10:52:07;70369.03;;;-148.57
24160;BMP280;62385;41.594;23.808;2022-07-29T11:05:08;70369.03;;;-148.57
24160;BMP280;62385;41.594;23.808;2022-07-29T11:07:36;70369.03;;;-148.57
24160;BMP280;62385;41.594;23.808;2022-07-29T11:15:15;70369.03;;;-148.57
24160;BMP280;62385;41.594;23.808;2022-07-29T11:23:26;70369.03;;;-148.57
24160;BMP280;62385;41.594;23.808;2022-07-29T11:29:19;70369.03;;;-148.57
24160;BMP280;62385;41.594;23.808;2022-07-29T11:31:48;70369.03;;;-148.57
24160;BMP280;62385;41.594;23.808;2022-07-29T11:47:35;70369.03;;;-148.57
24160;BMP280;62385;41.594;23.808;2022-07-29T11:50:08;70369.03;;;-148.57
24160;BMP280;62385;41.594;23.808;2022-07-29T11:55:05;70369.03;;;-148.57
24160;BMP280;62385;41.594;23.808;2022-07-29T11:57:33;70369.03;;;-148.57
24160;BMP280;62385;41.594;23.808;2022-07-29T12:00:00;70369.03;;;-148.57
24160;BMP280;62385;41.594;23.808;2022-07-29T12:02:38;70369.03;;;-148.57
24160;BMP280;62385;41.594;23.808;2022-07-29T12:05:04;70369.03;;;-148.57
24160;BMP280;62385;41.594;23.808;2022-07-29T12:07:32;70369.03;;;-148.57
24160;BMP280;62385;41.594;23.808;2022-07-29T12:09:58;70369.03;;;-148.57
24160;BMP280;62385;41.594;23.808;2022-07-29T12:12:24;70369.03;;;-148.57
24160;BMP280;62385;41.594;23.808;2022-07-29T12:14:50;70369.03;;;-148.57
24160;BMP280;62385;41.594;23.808;2022-07-29T12:17:30;70369.03;;;-148.57
24160;BMP280;62385;41.594;23.808;2022-07-29T12:19:58;70369.03;;;-148.57
24160;BMP280;62385;41.594;23.808;2022-07-29T12:22:35;70369.03;;;-148.57
24160;BMP280;62385;41.594;23.808;2022-07-29T12:25:08;70369.03;;;-148.57
24160;BMP280;62385;41.594;23.808;2022-07-29T12:27:35;70369.03;;;-148.57
24160;BMP280;62385;41.594;23.808;2022-07-29T12:30:14;70369.03;;;-148.57
24160;BMP280;62385;41.594;23.808;2022-07-29T12:32:49;70369.03;;;-148.57
24160;BMP280;62385;41.594;23.808;2022-07-29T12:35:19;70369.03;;;-148.57
24160;BMP280;62385;41.594;23.808;2022-07-29T12:37:48;70369.03;;;-148.57
24160;BMP280;62385;41.594;23.808;2022-07-29T12:40:16;70369.03;;;-148.57
24160;BMP280;62385;41.594;23.808;2022-07-29T12:43:11;70369.03;;;-148.57
24160;BMP280;62385;41.594;23.808;2022-07-29T12:45:38;70369.03;;;-148.57
24160;BMP280;62385;41.594;23.808;2022-07-29T12:48:05;70369.03;;;-148.57
24160;BMP280;62385;41.594;23.808;2022-07-29T12:50:31;70369.03;;;-148.57
24160;BMP280;62385;41.594;23.808;2022-07-29T12:53:11;70369.03;;;-148.57
24160;BMP280;62385;41.594;23.808;2022-07-29T12:55:48;70369.03;;;-148.57
24160;BMP280;62385;41.594;23.808;2022-07-29T12:58:30;70369.03;;;-148.57
24160;BMP280;62385;41.594;23.808;2022-07-29T13:01:13;70369.03;;;-148.57
24160;BMP280;62385;41.594;23.808;2022-07-29T13:03:59;70369.03;;;-148.57
24160;BMP280;62385;41.594;23.808;2022-07-29T13:06:44;70369.03;;;-148.57
24160;BMP280;62385;41.594;23.808;2022-07-29T13:09:13;70369.03;;;-148.57
24160;BMP280;62385;41.594;23.808;2022-07-29T13:11:48;70369.03;;;-148.57
24160;BMP280;62385;41.594;23.808;2022-07-29T13:14:30;70369.03;;;-148.57
24160;BMP280;62385;41.594;23.808;2022-07-29T13:17:05;70369.03;;;-148.57
24160;BMP280;62385;41.594;23.808;2022-07-29T13:19:36;70369.03;;;-148.57
24160;BMP280;62385;41.594;23.808;2022-07-29T13:22:02;70369.03;;;-148.57
24160;BMP280;62385;41.594;23.808;2022-07-29T13:24:27;70369.03;;;-148.57
24160;BMP280;62385;41.594;23.808;2022-07-29T13:26:53;70369.03;;;-148.57
24160;BMP280;62385;41.594;23.808;2022-07-29T13:29:18;70369.03;;;-148.57
24160;BMP280;62385;41.594;23.808;2022-07-29T13:31:44;70369.03;;;-148.57
24160;BMP280;62385;41.594;23.808;2022-07-29T13:34:10;70369.03;;;-148.57
24160;BMP280;62385;41.594;23.808;2022-07-29T13:36:36;70369.03;;;-148.57
24160;BMP280;62385;41.594;23.808;2022-07-29T13:39:02;70369.03;;;-148.57
24160;BMP280;62385;41.594;23.808;2022-07-29T13:41:28;70369.03;;;-148.57
24160;BMP280;62385;41.594;23.808;2022-07-29T13:43:54;70369.03;;;-148.57
24160;BMP280;62385;41.594;23.808;2022-07-29T13:46:20;70369.03;;;-148.57
24160;BMP280;62385;41.594;23.808;2022-07-29T13:48:45;70369.03;;;-148.57
24160;BMP280;62385;41.594;23.808;2022-07-29T13:51:12;70369.03;;;-148.57
24160;BMP280;62385;41.594;23.808;2022-07-29T13:53:37;70369.03;;;-148.57
24160;BMP280;62385;41.594;23.808;2022-07-29T13:56:03;70369.03;;;-148.57
24160;BMP280;62385;41.594;23.808;2022-07-29T13:58:32;70369.03;;;-148.57
24160;BMP280;62385;41.594;23.808;2022-07-29T14:00:59;70369.03;;;-148.57
24160;BMP280;62385;41.594;23.808;2022-07-29T14:03:25;70369.03;;;-148.57
24160;BMP280;62385;41.594;23.808;2022-07-29T14:19:42;95388.66;;;30.59
24160;BMP280;62385;41.594;23.808;2022-07-29T14:22:08;95380.06;;;30.25
24160;BMP280;62385;41.594;23.808;2022-07-29T14:24:35;95408.06;;;30.35
24160;BMP280;62385;41.594;23.808;2022-07-29T14:27:00;95403.19;;;30.35
24160;BMP280;62385;41.594;23.808;2022-07-29T14:29:26;95384.63;;;30.30
24160;BMP280;62385;41.594;23.808;2022-07-29T14:31:52;95367.88;;;30.52
24160;BMP280;62385;41.594;23.808;2022-07-29T14:34:18;95388.66;;;31.76
24160;BMP280;62385;41.594;23.808;2022-07-29T14:36:43;95411.44;;;31.59
24160;BMP280;62385;41.594;23.808;2022-07-29T14:39:09;95409.38;;;31.93
24160;BMP280;62385;41.594;23.808;2022-07-29T14:41:34;95370.78;;;31.17
24160;BMP280;62385;41.594;23.808;2022-07-29T14:44:00;95366.09;;;31.31
24160;BMP280;62385;41.594;23.808;2022-07-29T14:46:27;95392.25;;;31.34
24160;BMP280;62385;41.594;23.808;2022-07-29T14:48:52;95391.84;;;30.74
24160;BMP280;62385;41.594;23.808;2022-07-29T14:51:18;95406.84;;;31.75
24160;BMP280;62385;41.594;23.808;2022-07-29T14:53:43;95399.28;;;32.23
24160;BMP280;62385;41.594;23.808;2022-07-29T14:56:09;95403.22;;;32.53
24160;BMP280;62385;41.594;23.808;2022-07-29T14:58:35;95400.16;;;32.14
24160;BMP280;62385;41.594;23.808;2022-07-29T15:01:01;95396.25;;;31.52
24160;BMP280;62385;41.594;23.808;2022-07-29T15:03:27;95398.81;;;32.27
24160;BMP280;62385;41.594;23.808;2022-07-29T15:05:56;95406.44;;;31.91
24160;BMP280;62385;41.594;23.808;2022-07-29T15:08:22;95414.25;;;31.59